createdAt,value
2019-01-18T00:01:45.696Z,98609.59
2019-01-18T00:07:50.270Z,98622.28
2019-01-18T00:13:54.915Z,98628.41
2019-01-18T00:19:59.552Z,98641.30
2019-01-18T00:26:04.281Z,98653.22
2019-01-18T00:32:09.123Z,98667.91
2019-01-18T00:38:13.771Z,98674.38
2019-01-18T00:44:18.347Z,98684.45
2019-01-18T00:50:23.213Z,98689.77
2019-01-18T00:56:28.516Z,98698.70
2019-01-18T01:02:33.226Z,98696.34
2019-01-18T01:08:37.885Z,98711.73
2019-01-18T01:14:42.644Z,98721.62
2019-01-18T01:20:47.343Z,98731.67
2019-01-18T01:26:52.067Z,98753.00
2019-01-18T01:32:56.820Z,98794.61
2019-01-18T01:39:01.386Z,98828.38
2019-01-18T01:45:09.907Z,98838.95
2019-01-18T01:51:15.675Z,98853.41
2019-01-18T01:57:21.942Z,98866.66
2019-01-18T02:03:27.470Z,98870.11
2019-01-18T02:09:33.257Z,98874.07
2019-01-18T02:15:37.844Z,98884.69
2019-01-18T02:21:44.033Z,98906.18
2019-01-18T02:27:48.766Z,98916.42
2019-01-18T02:33:54.895Z,98927.56
2019-01-18T02:40:00.789Z,98947.30
2019-01-18T02:46:08.410Z,98958.55
2019-01-18T02:52:13.269Z,98978.34
2019-01-18T02:58:18.310Z,98993.48
2019-01-18T03:04:24.512Z,99001.49
2019-01-18T03:10:31.354Z,99009.06
2019-01-18T03:16:36.174Z,99030.58
2019-01-18T03:22:41.404Z,99038.78
2019-01-18T03:28:46.183Z,99058.13
2019-01-18T03:34:50.856Z,99065.14
2019-01-18T03:40:55.648Z,99068.41
2019-01-18T03:47:00.296Z,99083.88
2019-01-18T03:53:05.185Z,99104.30
2019-01-18T03:59:10.218Z,99118.56
2019-01-18T04:05:17.789Z,99124.32
2019-01-18T04:11:23.581Z,99130.81
2019-01-18T04:17:28.324Z,99142.20
2019-01-18T04:23:32.966Z,99156.77
2019-01-18T04:29:37.643Z,99162.15
2019-01-18T04:35:42.805Z,99168.81
2019-01-18T04:41:47.898Z,99178.96
2019-01-18T04:47:52.676Z,99195.73
2019-01-18T04:54:01.065Z,99204.80
2019-01-18T05:00:13.203Z,99206.33
2019-01-18T05:06:17.757Z,99216.37
2019-01-18T05:12:22.503Z,99222.22
2019-01-18T05:18:27.057Z,99232.63
2019-01-18T05:24:31.671Z,99234.16
2019-01-18T05:30:36.268Z,99249.67
2019-01-18T05:36:40.888Z,99256.53
2019-01-18T05:42:46.866Z,99262.97
2019-01-18T05:48:51.793Z,99271.11
2019-01-18T05:54:56.372Z,99275.33
2019-01-18T06:01:02.546Z,99289.72
2019-01-18T06:07:07.087Z,99301.77
2019-01-18T06:13:11.811Z,99306.81
2019-01-18T06:19:16.353Z,99323.71
2019-01-18T06:25:20.969Z,99330.27
2019-01-18T06:31:25.898Z,99335.89
2019-01-18T06:37:30.448Z,99344.16
2019-01-18T06:43:34.990Z,99358.00
2019-01-18T06:49:39.533Z,99368.41
2019-01-18T06:55:45.408Z,99385.02
2019-01-18T07:01:50.055Z,99393.28
2019-01-18T07:07:55.146Z,99401.05
2019-01-18T07:13:59.696Z,99407.62
2019-01-18T07:20:08.314Z,99414.42
2019-01-18T07:26:12.881Z,99418.63
2019-01-18T07:32:17.420Z,99429.73
2019-01-18T07:38:22.970Z,99443.22
2019-01-18T07:44:27.844Z,99469.02
2019-01-18T07:50:32.439Z,99469.76
2019-01-18T07:56:37.002Z,99469.50
2019-01-18T08:02:41.632Z,99484.21
2019-01-18T08:08:46.991Z,99490.91
2019-01-18T08:14:51.527Z,99499.05
2019-01-18T08:20:56.079Z,99502.88
2019-01-18T08:27:00.697Z,99512.34
2019-01-18T08:33:05.377Z,99516.03
2019-01-18T08:39:09.978Z,99522.38
2019-01-18T08:45:30.617Z,99532.53
2019-01-18T08:51:35.160Z,99536.37
2019-01-18T08:57:40.044Z,99541.05
2019-01-18T09:03:44.595Z,99555.38
2019-01-18T09:09:49.138Z,99570.80
2019-01-18T09:15:54.484Z,99579.06
2019-01-18T09:21:59.109Z,99595.09
2019-01-18T09:28:05.658Z,99600.84
2019-01-18T09:34:10.686Z,99614.62
2019-01-18T09:40:19.591Z,99619.73
2019-01-18T09:46:24.301Z,99632.80
2019-01-18T09:52:28.919Z,99638.88
2019-01-18T09:58:33.702Z,99640.30
2019-01-18T10:04:38.448Z,99641.13
2019-01-18T10:10:43.965Z,99656.55
2019-01-18T10:16:48.591Z,99653.26
2019-01-18T10:22:53.295Z,99653.31
2019-01-18T10:28:57.925Z,99658.56
2019-01-18T10:35:02.537Z,99662.27
2019-01-18T10:41:07.167Z,99652.66
2019-01-18T10:47:11.852Z,99651.69
2019-01-18T10:53:16.487Z,99651.44
2019-01-18T10:59:22.971Z,99658.94
2019-01-18T11:05:27.803Z,99663.03
2019-01-18T11:11:32.466Z,99657.23
2019-01-18T11:17:37.050Z,99651.45
2019-01-18T11:23:41.793Z,99649.45
2019-01-18T11:29:47.950Z,99647.09
2019-01-18T11:35:52.750Z,99647.59
2019-01-18T11:41:57.459Z,99643.73
2019-01-18T11:48:03.379Z,99646.34
2019-01-18T11:54:08.083Z,99643.23
2019-01-18T12:00:19.932Z,99636.80
2019-01-18T12:06:24.585Z,99637.07
2019-01-18T12:12:29.503Z,99632.41
2019-01-18T12:18:34.147Z,99626.30
2019-01-18T12:24:38.895Z,99629.56
2019-01-18T12:30:47.119Z,99627.04
2019-01-18T12:36:58.588Z,99634.82
2019-01-18T12:43:00.916Z,99631.86
2019-01-18T12:49:05.796Z,99635.44
2019-01-18T12:55:10.712Z,99645.98
2019-01-18T13:01:15.404Z,99642.22
2019-01-18T13:07:20.405Z,99638.30
2019-01-18T13:13:24.952Z,99641.33
2019-01-18T13:19:29.492Z,99641.50
2019-01-18T13:25:34.108Z,99637.31
2019-01-18T13:31:38.801Z,99646.66
2019-01-18T13:37:43.461Z,99644.89
2019-01-18T13:43:48.091Z,99653.18
2019-01-18T13:49:54.556Z,99652.88
2019-01-18T13:55:59.109Z,99660.78
2019-01-18T14:02:03.780Z,99654.84
2019-01-18T14:08:08.326Z,99663.52
2019-01-18T14:14:14.080Z,99672.95
2019-01-18T14:20:24.639Z,99674.38
2019-01-18T14:26:29.313Z,99673.91
2019-01-18T14:32:33.923Z,99677.77
2019-01-18T14:38:38.461Z,99685.64
2019-01-18T14:44:42.999Z,99685.49
2019-01-18T14:50:47.607Z,99683.53
2019-01-18T14:56:52.138Z,99686.57
2019-01-18T15:03:02.446Z,99688.48
2019-01-18T15:09:09.984Z,99693.58
2019-01-18T15:15:16.226Z,99695.80
2019-01-18T15:21:20.785Z,99700.11
2019-01-18T15:27:25.317Z,99700.42
2019-01-18T15:33:31.092Z,99695.86
2019-01-18T15:39:35.623Z,99700.41
2019-01-18T15:45:40.836Z,99687.34
2019-01-18T15:51:45.370Z,99691.97
2019-01-18T15:57:50.163Z,99698.58
2019-01-18T16:03:54.780Z,99699.09
2019-01-18T16:09:59.336Z,99695.00
2019-01-18T16:16:08.393Z,99698.47
2019-01-18T16:22:13.025Z,99699.45
2019-01-18T16:28:17.566Z,99700.66
2019-01-18T16:34:22.103Z,99699.23
2019-01-18T16:40:35.246Z,99705.08
2019-01-18T16:46:39.803Z,99705.58
2019-01-18T16:52:44.718Z,99711.54
2019-01-18T16:58:49.603Z,99704.37
2019-01-18T17:04:54.504Z,99712.39
2019-01-18T17:10:59.044Z,99708.44
2019-01-18T17:17:03.593Z,99701.61
2019-01-18T17:23:08.290Z,99705.69
2019-01-18T17:29:12.853Z,99717.90
2019-01-18T17:35:29.129Z,99710.00
2019-01-18T17:41:59.025Z,99709.17
2019-01-18T17:48:10.800Z,99711.20
2019-01-18T17:54:28.830Z,99709.16
2019-01-18T18:00:40.584Z,99716.22
2019-01-18T18:07:01.556Z,99725.08
2019-01-18T18:13:30.478Z,99735.97
2019-01-18T18:20:07.820Z,99740.76
2019-01-18T18:26:46.686Z,99735.98
2019-01-18T18:33:10.947Z,99739.54
2019-01-18T18:39:20.201Z,99735.84
2019-01-18T18:45:40.986Z,99739.58
2019-01-18T18:52:30.780Z,99739.19
2019-01-18T18:58:56.723Z,99751.04
2019-01-18T19:05:20.408Z,99751.42
2019-01-18T19:11:35.591Z,99750.20
2019-01-18T19:18:08.543Z,99751.61
2019-01-18T19:24:56.894Z,99743.58
2019-01-18T19:31:30.674Z,99742.20
2019-01-18T19:37:55.869Z,99734.98
2019-01-18T19:44:05.132Z,99743.97
2019-01-18T19:50:33.508Z,99737.32
2019-01-18T19:56:51.550Z,99744.80
2019-01-18T20:03:16.997Z,99734.76
2019-01-18T20:09:33.665Z,99745.83
2019-01-18T20:15:54.654Z,99750.98
2019-01-18T20:22:03.981Z,99747.91
2019-01-18T20:28:30.832Z,99746.52
2019-01-18T20:34:54.115Z,99753.44
2019-01-18T20:41:28.637Z,99753.16
2019-01-18T20:48:13.694Z,99754.38
2019-01-18T20:54:49.797Z,99751.74
2019-01-18T21:01:01.867Z,99753.17
2019-01-18T21:07:25.670Z,99752.41
2019-01-18T21:13:52.718Z,99755.52
2019-01-18T21:20:04.785Z,99761.12
2019-01-18T21:26:20.818Z,99761.78
2019-01-18T21:32:55.786Z,99766.70
2019-01-18T21:39:07.867Z,99774.34
2019-01-18T21:45:22.649Z,99774.45
2019-01-18T21:52:00.094Z,99775.84
2019-01-18T21:58:14.939Z,99770.58
2019-01-18T22:04:28.979Z,99776.20
2019-01-18T22:10:44.058Z,99777.45
2019-01-18T22:17:18.548Z,99773.99
2019-01-18T22:23:36.620Z,99781.28
2019-01-18T22:29:58.913Z,99776.66
2019-01-18T22:36:42.482Z,99774.95
2019-01-18T22:43:09.524Z,99782.56
2019-01-18T22:49:54.381Z,99787.02
2019-01-18T22:56:39.387Z,99791.95
2019-01-18T23:02:54.068Z,99798.51
2019-01-18T23:09:21.238Z,99797.31
2019-01-18T23:16:19.742Z,99796.20
2019-01-18T23:22:36.944Z,99792.59
2019-01-18T23:29:11.503Z,99795.53
2019-01-18T23:35:41.151Z,99795.62
2019-01-18T23:42:21.538Z,99787.10
2019-01-18T23:48:42.983Z,99786.07
2019-01-18T23:55:01.529Z,99787.42
